Antigo, WI

1:56 PM CDT on August 29, 2015 (GMT -0500)
Langlade County | | Change Station
CLOSE
Current Station
Airport
Location: Antigo,
Elevation: 1522 ft
Nearby Weather Stations

Elev 1522 ft 45.16 °N, 89.11 °W | Updated 26 minutes ago

Overcast
Overcast
65 °F
Feels Like 65 °F
N
4
Wind Variable Wind from South

Today
High -- | Low -- °F
--% Chance of Precip.
Yesterday
High -- | Low -- °F
Precip. -- in
6:14 AM 7:39 PM
Full, 100% visible
Pressure 30.09 in
Visibility 10.0 miles
Clouds Overcast 1800 ft
Dew Point 59 °F
Humidity 81%
Rainfall 0.00 in
Snow Depth Not available.
UV 3 out of 12
Pollen 8.90 out of 12
Air Quality Not available.
Flu Activity Not available.
METAR KAIG 291830Z AUTO 18003KT 10SM OVC018 19/15 A3009 RMK AO2 T01850151
Pressure 30.09 in
Visibility 10.0 miles
Clouds Overcast 1800 ft
Dew Point 59 °F
Humidity 81%
Rainfall 0.00 in
Snow Depth Not available.
UV 3 out of 12
Pollen 8.90 out of 12
Air Quality Not available.
Flu Activity Not available.
METAR KAIG 291830Z AUTO 18003KT 10SM OVC018 19/15 A3009 RMK AO2 T01850151

10-Day Weather Forecast

×

Almanac

Astronomy

Aug. 29, 2015 Rise Set
Actual Time
Civil Twilight
Nautical Twilight
Astronomical Twilight
Moon
Length of Visible Light
Length of Day
Tomorrow will be .
, % of the Moon is Illuminated

Today's Extremes

State Highs State Lows

Community

WunderPhotos

Upload Photos

1,850,764 photos uploaded!

WunderBlogs® & News

Nearby

Air Quality

  Air Quality AQ Index Pollutant
Not available.

Snow Depth

Station Depth Elevation

Earthquake Activity

City Distance Mag. Time & Date
Minimum magnitude displayed is 2.5.

Coastal Water Temperatures

Place Temperature

Stations

Nearby Weather Stations

Station Location Temp. Windchill Dew Point Humidity Wind Precip. Elev Updated Type